South Newport, Georgia
Current Conditions -  °F | °C
As of 2:47 AM on Wednesday 26 Nov 2014 (Local Time) from KLHW Reporting Station
Light Rain Light Rain  
Wind Chill: 50°   Ceiling: 600
Heat Index: 50°   Visibility: 7mi
Dew Point: 48°   Wind: 13mph
Humidity: 94%   Direction: 310°NW
Pressure: 29.88"   Gusts: 21mph
Location:  31.7217°N, 81.4475°W
Report Text: KLHW 260747Z AUTO 31011G18KT 7SM -RA OVC006 10/09 A2988 RMK AO2 OVC V BKN
Loading
Personal Weather Stations






























Interactive Weather Map New forecast layout! Learn more

10-Day Weather Forecast

Advertisements
Track Severe Weather on mobile